sensor_id;sensor_type;location;lat;lon;timestamp;P1;durP1;ratioP1;P2;durP2;ratioP2
4980;SDS011;2507;50.392;7.482;2022-08-19T00:01:24;14.53;;;13.33;;
4980;SDS011;2507;50.392;7.482;2022-08-19T00:03:50;13.90;;;12.77;;
4980;SDS011;2507;50.392;7.482;2022-08-19T00:06:16;12.93;;;11.83;;
4980;SDS011;2507;50.392;7.482;2022-08-19T00:08:42;13.80;;;12.60;;
4980;SDS011;2507;50.392;7.482;2022-08-19T00:11:07;13.57;;;11.90;;
4980;SDS011;2507;50.392;7.482;2022-08-19T00:13:33;13.50;;;12.30;;
4980;SDS011;2507;50.392;7.482;2022-08-19T00:15:58;12.97;;;11.87;;
4980;SDS011;2507;50.392;7.482;2022-08-19T00:18:24;13.60;;;12.50;;
4980;SDS011;2507;50.392;7.482;2022-08-19T00:20:50;12.47;;;11.37;;
4980;SDS011;2507;50.392;7.482;2022-08-19T00:23:15;13.03;;;11.87;;
4980;SDS011;2507;50.392;7.482;2022-08-19T00:25:41;15.80;;;14.30;;
4980;SDS011;2507;50.392;7.482;2022-08-19T00:28:06;17.67;;;16.00;;
4980;SDS011;2507;50.392;7.482;2022-08-19T00:30:31;15.00;;;13.70;;
4980;SDS011;2507;50.392;7.482;2022-08-19T00:32:57;14.97;;;13.43;;
4980;SDS011;2507;50.392;7.482;2022-08-19T00:35:23;16.53;;;15.03;;
4980;SDS011;2507;50.392;7.482;2022-08-19T00:37:49;16.07;;;14.67;;
4980;SDS011;2507;50.392;7.482;2022-08-19T00:40:15;16.23;;;14.73;;
4980;SDS011;2507;50.392;7.482;2022-08-19T00:42:42;14.37;;;13.17;;
4980;SDS011;2507;50.392;7.482;2022-08-19T00:45:10;15.83;;;14.33;;
4980;SDS011;2507;50.392;7.482;2022-08-19T00:47:38;17.13;;;15.53;;
4980;SDS011;2507;50.392;7.482;2022-08-19T00:50:03;19.23;;;14.90;;
4980;SDS011;2507;50.392;7.482;2022-08-19T00:52:31;14.60;;;13.23;;
4980;SDS011;2507;50.392;7.482;2022-08-19T00:55:00;14.33;;;12.93;;
4980;SDS011;2507;50.392;7.482;2022-08-19T00:57:30;15.13;;;13.73;;
4980;SDS011;2507;50.392;7.482;2022-08-19T00:59:59;13.50;;;12.30;;
4980;SDS011;2507;50.392;7.482;2022-08-19T01:02:27;13.93;;;12.63;;
4980;SDS011;2507;50.392;7.482;2022-08-19T01:04:53;15.33;;;13.93;;
4980;SDS011;2507;50.392;7.482;2022-08-19T01:07:19;13.80;;;12.47;;
4980;SDS011;2507;50.392;7.482;2022-08-19T01:09:45;14.97;;;13.63;;
4980;SDS011;2507;50.392;7.482;2022-08-19T01:12:11;16.37;;;14.77;;
4980;SDS011;2507;50.392;7.482;2022-08-19T01:14:36;13.50;;;12.30;;
4980;SDS011;2507;50.392;7.482;2022-08-19T01:17:04;14.60;;;13.30;;
4980;SDS011;2507;50.392;7.482;2022-08-19T01:19:32;14.83;;;13.50;;
4980;SDS011;2507;50.392;7.482;2022-08-19T01:22:02;16.60;;;13.10;;
4980;SDS011;2507;50.392;7.482;2022-08-19T01:24:34;14.00;;;12.80;;
4980;SDS011;2507;50.392;7.482;2022-08-19T01:26:59;14.40;;;13.10;;
4980;SDS011;2507;50.392;7.482;2022-08-19T01:29:25;12.73;;;11.67;;
4980;SDS011;2507;50.392;7.482;2022-08-19T01:31:50;14.43;;;13.13;;
4980;SDS011;2507;50.392;7.482;2022-08-19T01:34:17;13.53;;;12.43;;
4980;SDS011;2507;50.392;7.482;2022-08-19T01:36:44;13.30;;;12.20;;
4980;SDS011;2507;50.392;7.482;2022-08-19T01:39:13;18.27;;;13.47;;
4980;SDS011;2507;50.392;7.482;2022-08-19T01:41:42;12.90;;;11.80;;
4980;SDS011;2507;50.392;7.482;2022-08-19T01:44:07;14.07;;;12.70;;
4980;SDS011;2507;50.392;7.482;2022-08-19T01:46:34;16.30;;;14.57;;
4980;SDS011;2507;50.392;7.482;2022-08-19T01:49:01;13.50;;;12.40;;
4980;SDS011;2507;50.392;7.482;2022-08-19T01:51:27;13.90;;;12.70;;
4980;SDS011;2507;50.392;7.482;2022-08-19T01:53:52;12.83;;;11.50;;
4980;SDS011;2507;50.392;7.482;2022-08-19T01:56:18;15.43;;;14.00;;
4980;SDS011;2507;50.392;7.482;2022-08-19T01:58:48;15.73;;;14.17;;
4980;SDS011;2507;50.392;7.482;2022-08-19T02:01:18;13.40;;;12.00;;
4980;SDS011;2507;50.392;7.482;2022-08-19T02:03:44;14.73;;;13.23;;
4980;SDS011;2507;50.392;7.482;2022-08-19T02:06:10;15.47;;;13.83;;
4980;SDS011;2507;50.392;7.482;2022-08-19T02:08:37;12.97;;;11.77;;
4980;SDS011;2507;50.392;7.482;2022-08-19T02:11:03;14.07;;;12.70;;
4980;SDS011;2507;50.392;7.482;2022-08-19T02:13:29;14.07;;;12.87;;
4980;SDS011;2507;50.392;7.482;2022-08-19T02:15:55;14.10;;;12.70;;
4980;SDS011;2507;50.392;7.482;2022-08-19T02:18:20;16.47;;;13.73;;
4980;SDS011;2507;50.392;7.482;2022-08-19T02:20:46;16.03;;;13.67;;
4980;SDS011;2507;50.392;7.482;2022-08-19T02:23:15;14.20;;;12.90;;
4980;SDS011;2507;50.392;7.482;2022-08-19T02:25:42;15.83;;;14.43;;
4980;SDS011;2507;50.392;7.482;2022-08-19T02:28:09;16.67;;;15.10;;
4980;SDS011;2507;50.392;7.482;2022-08-19T02:30:34;15.30;;;13.90;;
4980;SDS011;2507;50.392;7.482;2022-08-19T02:32:59;16.03;;;14.53;;
4980;SDS011;2507;50.392;7.482;2022-08-19T02:35:25;17.27;;;14.77;;
4980;SDS011;2507;50.392;7.482;2022-08-19T02:37:50;16.10;;;14.70;;
4980;SDS011;2507;50.392;7.482;2022-08-19T02:40:35;16.47;;;14.50;;
4980;SDS011;2507;50.392;7.482;2022-08-19T02:43:01;17.97;;;15.87;;
4980;SDS011;2507;50.392;7.482;2022-08-19T02:45:31;17.40;;;15.70;;
4980;SDS011;2507;50.392;7.482;2022-08-19T02:47:58;16.17;;;14.67;;
4980;SDS011;2507;50.392;7.482;2022-08-19T02:50:23;17.10;;;15.40;;
4980;SDS011;2507;50.392;7.482;2022-08-19T02:52:48;18.10;;;16.13;;
4980;SDS011;2507;50.392;7.482;2022-08-19T02:55:13;17.53;;;16.03;;
4980;SDS011;2507;50.392;7.482;2022-08-19T02:57:38;17.10;;;15.30;;
4980;SDS011;2507;50.392;7.482;2022-08-19T03:00:05;16.73;;;15.10;;
4980;SDS011;2507;50.392;7.482;2022-08-19T03:02:31;16.60;;;15.10;;
4980;SDS011;2507;50.392;7.482;2022-08-19T03:04:57;16.60;;;15.10;;
4980;SDS011;2507;50.392;7.482;2022-08-19T03:07:22;17.83;;;16.20;;
4980;SDS011;2507;50.392;7.482;2022-08-19T03:09:47;16.00;;;14.63;;
4980;SDS011;2507;50.392;7.482;2022-08-19T03:12:13;16.67;;;15.13;;
4980;SDS011;2507;50.392;7.482;2022-08-19T03:14:38;16.43;;;15.03;;
4980;SDS011;2507;50.392;7.482;2022-08-19T03:17:03;16.27;;;14.77;;
4980;SDS011;2507;50.392;7.482;2022-08-19T03:19:29;19.77;;;14.93;;
4980;SDS011;2507;50.392;7.482;2022-08-19T03:21:56;15.37;;;14.00;;
4980;SDS011;2507;50.392;7.482;2022-08-19T03:24:22;16.40;;;14.80;;
4980;SDS011;2507;50.392;7.482;2022-08-19T03:26:50;14.90;;;13.50;;
4980;SDS011;2507;50.392;7.482;2022-08-19T03:29:18;16.00;;;14.60;;
4980;SDS011;2507;50.392;7.482;2022-08-19T03:31:44;17.83;;;15.13;;
4980;SDS011;2507;50.392;7.482;2022-08-19T03:34:13;16.83;;;15.13;;
4980;SDS011;2507;50.392;7.482;2022-08-19T03:36:40;16.77;;;15.10;;
4980;SDS011;2507;50.392;7.482;2022-08-19T03:39:06;16.47;;;14.97;;
4980;SDS011;2507;50.392;7.482;2022-08-19T03:41:38;14.87;;;13.47;;
4980;SDS011;2507;50.392;7.482;2022-08-19T03:44:05;18.60;;;15.40;;
4980;SDS011;2507;50.392;7.482;2022-08-19T03:46:32;16.93;;;15.00;;
4980;SDS011;2507;50.392;7.482;2022-08-19T03:48:59;18.63;;;16.63;;
4980;SDS011;2507;50.392;7.482;2022-08-19T03:51:29;19.67;;;17.20;;
4980;SDS011;2507;50.392;7.482;2022-08-19T03:53:56;17.27;;;15.57;;
4980;SDS011;2507;50.392;7.482;2022-08-19T03:56:23;16.70;;;15.30;;
4980;SDS011;2507;50.392;7.482;2022-08-19T03:58:50;17.70;;;15.97;;
4980;SDS011;2507;50.392;7.482;2022-08-19T04:01:18;18.47;;;16.67;;
4980;SDS011;2507;50.392;7.482;2022-08-19T04:03:45;17.73;;;16.03;;
4980;SDS011;2507;50.392;7.482;2022-08-19T04:06:15;17.17;;;15.37;;
4980;SDS011;2507;50.392;7.482;2022-08-19T04:08:43;16.50;;;14.87;;
4980;SDS011;2507;50.392;7.482;2022-08-19T04:11:11;18.20;;;16.50;;
4980;SDS011;2507;50.392;7.482;2022-08-19T04:13:38;17.37;;;15.73;;
4980;SDS011;2507;50.392;7.482;2022-08-19T04:16:03;16.20;;;14.70;;
4980;SDS011;2507;50.392;7.482;2022-08-19T04:18:30;18.57;;;16.63;;
4980;SDS011;2507;50.392;7.482;2022-08-19T04:20:56;16.47;;;14.90;;
4980;SDS011;2507;50.392;7.482;2022-08-19T04:23:21;18.20;;;16.50;;
4980;SDS011;2507;50.392;7.482;2022-08-19T04:25:47;17.07;;;15.50;;
4980;SDS011;2507;50.392;7.482;2022-08-19T04:28:13;18.10;;;15.97;;
4980;SDS011;2507;50.392;7.482;2022-08-19T04:30:42;16.20;;;14.80;;
4980;SDS011;2507;50.392;7.482;2022-08-19T04:33:10;18.70;;;16.90;;
4980;SDS011;2507;50.392;7.482;2022-08-19T04:35:37;16.17;;;14.67;;
4980;SDS011;2507;50.392;7.482;2022-08-19T04:38:05;17.60;;;15.80;;
4980;SDS011;2507;50.392;7.482;2022-08-19T04:40:31;19.77;;;17.83;;
4980;SDS011;2507;50.392;7.482;2022-08-19T04:43:15;19.93;;;17.80;;
4980;SDS011;2507;50.392;7.482;2022-08-19T04:45:42;19.63;;;17.53;;
4980;SDS011;2507;50.392;7.482;2022-08-19T04:48:08;22.83;;;17.03;;
4980;SDS011;2507;50.392;7.482;2022-08-19T04:50:34;22.93;;;17.50;;
4980;SDS011;2507;50.392;7.482;2022-08-19T04:53:00;17.30;;;15.50;;
4980;SDS011;2507;50.392;7.482;2022-08-19T04:55:26;19.40;;;17.50;;
4980;SDS011;2507;50.392;7.482;2022-08-19T04:57:51;20.93;;;18.20;;
4980;SDS011;2507;50.392;7.482;2022-08-19T05:00:16;18.90;;;16.10;;
4980;SDS011;2507;50.392;7.482;2022-08-19T05:02:42;17.43;;;15.73;;
4980;SDS011;2507;50.392;7.482;2022-08-19T05:05:08;18.17;;;15.83;;
4980;SDS011;2507;50.392;7.482;2022-08-19T05:07:33;19.60;;;17.50;;
4980;SDS011;2507;50.392;7.482;2022-08-19T05:09:59;19.27;;;16.60;;
4980;SDS011;2507;50.392;7.482;2022-08-19T05:12:25;18.53;;;16.70;;
4980;SDS011;2507;50.392;7.482;2022-08-19T05:14:51;18.93;;;16.77;;
4980;SDS011;2507;50.392;7.482;2022-08-19T05:17:17;17.97;;;15.80;;
4980;SDS011;2507;50.392;7.482;2022-08-19T05:19:42;17.10;;;15.30;;
4980;SDS011;2507;50.392;7.482;2022-08-19T05:22:26;20.10;;;15.70;;
4980;SDS011;2507;50.392;7.482;2022-08-19T05:24:59;16.43;;;14.50;;
4980;SDS011;2507;50.392;7.482;2022-08-19T05:27:27;19.87;;;13.97;;
4980;SDS011;2507;50.392;7.482;2022-08-19T05:29:52;13.70;;;12.40;;
4980;SDS011;2507;50.392;7.482;2022-08-19T05:32:17;17.40;;;14.03;;
4980;SDS011;2507;50.392;7.482;2022-08-19T05:34:42;15.60;;;11.90;;
4980;SDS011;2507;50.392;7.482;2022-08-19T05:37:08;16.97;;;13.80;;
4980;SDS011;2507;50.392;7.482;2022-08-19T05:39:34;14.63;;;12.50;;
4980;SDS011;2507;50.392;7.482;2022-08-19T05:42:03;14.60;;;12.90;;
4980;SDS011;2507;50.392;7.482;2022-08-19T05:44:32;19.60;;;13.80;;
4980;SDS011;2507;50.392;7.482;2022-08-19T05:47:01;14.60;;;13.20;;
4980;SDS011;2507;50.392;7.482;2022-08-19T05:49:28;14.33;;;13.07;;
4980;SDS011;2507;50.392;7.482;2022-08-19T05:51:54;13.10;;;11.80;;
4980;SDS011;2507;50.392;7.482;2022-08-19T05:54:20;15.73;;;14.10;;
4980;SDS011;2507;50.392;7.482;2022-08-19T05:56:48;16.10;;;14.20;;
4980;SDS011;2507;50.392;7.482;2022-08-19T05:59:14;14.17;;;12.50;;
4980;SDS011;2507;50.392;7.482;2022-08-19T06:01:42;16.37;;;14.47;;
4980;SDS011;2507;50.392;7.482;2022-08-19T06:04:09;18.60;;;15.50;;
4980;SDS011;2507;50.392;7.482;2022-08-19T06:06:35;16.90;;;14.50;;
4980;SDS011;2507;50.392;7.482;2022-08-19T06:09:01;16.17;;;14.60;;
4980;SDS011;2507;50.392;7.482;2022-08-19T06:11:36;16.20;;;14.60;;
4980;SDS011;2507;50.392;7.482;2022-08-19T06:14:10;13.37;;;12.27;;
4980;SDS011;2507;50.392;7.482;2022-08-19T06:16:47;16.60;;;13.30;;
4980;SDS011;2507;50.392;7.482;2022-08-19T06:19:14;15.23;;;13.73;;
4980;SDS011;2507;50.392;7.482;2022-08-19T06:21:42;16.20;;;14.70;;
4980;SDS011;2507;50.392;7.482;2022-08-19T06:24:10;15.43;;;13.93;;
4980;SDS011;2507;50.392;7.482;2022-08-19T06:26:38;16.90;;;15.30;;
4980;SDS011;2507;50.392;7.482;2022-08-19T06:29:05;16.33;;;14.93;;
4980;SDS011;2507;50.392;7.482;2022-08-19T06:31:32;15.43;;;13.80;;
4980;SDS011;2507;50.392;7.482;2022-08-19T06:34:00;15.20;;;13.80;;
4980;SDS011;2507;50.392;7.482;2022-08-19T06:36:29;19.13;;;17.20;;
4980;SDS011;2507;50.392;7.482;2022-08-19T06:38:59;21.83;;;19.70;;
4980;SDS011;2507;50.392;7.482;2022-08-19T06:41:27;20.07;;;18.17;;
4980;SDS011;2507;50.392;7.482;2022-08-19T06:43:53;20.10;;;18.10;;
4980;SDS011;2507;50.392;7.482;2022-08-19T06:46:18;20.33;;;18.20;;
4980;SDS011;2507;50.392;7.482;2022-08-19T06:48:44;21.30;;;19.23;;
4980;SDS011;2507;50.392;7.482;2022-08-19T06:51:10;20.57;;;18.50;;
4980;SDS011;2507;50.392;7.482;2022-08-19T06:53:36;20.07;;;18.03;;
4980;SDS011;2507;50.392;7.482;2022-08-19T06:56:04;19.50;;;17.70;;
4980;SDS011;2507;50.392;7.482;2022-08-19T06:58:29;21.20;;;19.13;;
4980;SDS011;2507;50.392;7.482;2022-08-19T07:00:59;23.40;;;19.60;;
4980;SDS011;2507;50.392;7.482;2022-08-19T07:03:31;22.50;;;20.37;;
4980;SDS011;2507;50.392;7.482;2022-08-19T07:06:02;21.13;;;19.10;;
4980;SDS011;2507;50.392;7.482;2022-08-19T07:08:32;20.57;;;18.37;;
4980;SDS011;2507;50.392;7.482;2022-08-19T07:10:57;24.90;;;22.33;;
4980;SDS011;2507;50.392;7.482;2022-08-19T07:13:23;24.70;;;22.17;;
4980;SDS011;2507;50.392;7.482;2022-08-19T07:15:49;24.20;;;21.57;;
4980;SDS011;2507;50.392;7.482;2022-08-19T07:18:15;23.63;;;21.27;;
4980;SDS011;2507;50.392;7.482;2022-08-19T07:20:45;26.60;;;23.77;;
4980;SDS011;2507;50.392;7.482;2022-08-19T07:23:10;35.53;;;23.30;;
4980;SDS011;2507;50.392;7.482;2022-08-19T07:25:36;26.00;;;23.33;;
4980;SDS011;2507;50.392;7.482;2022-08-19T07:28:03;23.77;;;21.27;;
4980;SDS011;2507;50.392;7.482;2022-08-19T07:30:29;24.10;;;21.20;;
4980;SDS011;2507;50.392;7.482;2022-08-19T07:32:54;24.40;;;21.93;;
4980;SDS011;2507;50.392;7.482;2022-08-19T07:35:21;23.10;;;20.73;;
4980;SDS011;2507;50.392;7.482;2022-08-19T07:37:46;22.17;;;20.03;;
4980;SDS011;2507;50.392;7.482;2022-08-19T07:40:12;21.90;;;19.57;;
4980;SDS011;2507;50.392;7.482;2022-08-19T07:42:37;23.00;;;20.70;;
4980;SDS011;2507;50.392;7.482;2022-08-19T07:45:03;25.40;;;20.80;;
4980;SDS011;2507;50.392;7.482;2022-08-19T07:47:29;23.07;;;18.83;;
4980;SDS011;2507;50.392;7.482;2022-08-19T07:49:55;20.23;;;18.13;;
4980;SDS011;2507;50.392;7.482;2022-08-19T07:52:21;22.10;;;20.00;;
4980;SDS011;2507;50.392;7.482;2022-08-19T07:54:47;23.23;;;20.53;;
4980;SDS011;2507;50.392;7.482;2022-08-19T07:57:12;22.70;;;20.00;;
4980;SDS011;2507;50.392;7.482;2022-08-19T07:59:38;25.50;;;21.20;;
4980;SDS011;2507;50.392;7.482;2022-08-19T08:02:03;23.27;;;20.30;;
4980;SDS011;2507;50.392;7.482;2022-08-19T08:04:29;22.70;;;19.53;;
4980;SDS011;2507;50.392;7.482;2022-08-19T08:07:14;22.20;;;19.43;;
4980;SDS011;2507;50.392;7.482;2022-08-19T08:09:58;18.80;;;15.90;;
4980;SDS011;2507;50.392;7.482;2022-08-19T08:12:26;23.70;;;19.00;;
4980;SDS011;2507;50.392;7.482;2022-08-19T08:14:56;21.37;;;19.23;;
4980;SDS011;2507;50.392;7.482;2022-08-19T08:17:25;20.17;;;17.47;;
4980;SDS011;2507;50.392;7.482;2022-08-19T08:19:52;19.03;;;17.13;;
4980;SDS011;2507;50.392;7.482;2022-08-19T08:22:18;18.83;;;15.70;;
4980;SDS011;2507;50.392;7.482;2022-08-19T08:25:05;17.20;;;15.40;;
4980;SDS011;2507;50.392;7.482;2022-08-19T08:27:35;18.77;;;17.00;;
4980;SDS011;2507;50.392;7.482;2022-08-19T08:30:04;17.60;;;15.53;;
4980;SDS011;2507;50.392;7.482;2022-08-19T08:32:37;16.87;;;15.17;;
4980;SDS011;2507;50.392;7.482;2022-08-19T08:35:04;18.47;;;16.53;;
4980;SDS011;2507;50.392;7.482;2022-08-19T08:37:31;16.40;;;14.90;;
4980;SDS011;2507;50.392;7.482;2022-08-19T08:39:56;16.10;;;14.40;;
4980;SDS011;2507;50.392;7.482;2022-08-19T08:42:29;17.00;;;15.27;;
4980;SDS011;2507;50.392;7.482;2022-08-19T08:45:00;17.00;;;14.50;;
4980;SDS011;2507;50.392;7.482;2022-08-19T08:47:31;18.43;;;14.20;;
4980;SDS011;2507;50.392;7.482;2022-08-19T08:52:48;14.07;;;12.00;;
4980;SDS011;2507;50.392;7.482;2022-08-19T08:55:23;13.27;;;12.10;;
4980;SDS011;2507;50.392;7.482;2022-08-19T08:58:01;12.23;;;10.60;;
4980;SDS011;2507;50.392;7.482;2022-08-19T09:00:30;11.87;;;10.67;;
4980;SDS011;2507;50.392;7.482;2022-08-19T09:03:02;11.90;;;10.70;;
4980;SDS011;2507;50.392;7.482;2022-08-19T09:05:50;11.67;;;10.63;;
4980;SDS011;2507;50.392;7.482;2022-08-19T09:11:04;11.50;;;10.40;;
4980;SDS011;2507;50.392;7.482;2022-08-19T09:16:11;10.30;;;9.50;;
4980;SDS011;2507;50.392;7.482;2022-08-19T09:18:48;12.37;;;9.97;;
4980;SDS011;2507;50.392;7.482;2022-08-19T09:21:18;10.70;;;9.60;;
4980;SDS011;2507;50.392;7.482;2022-08-19T09:23:45;10.83;;;9.57;;
4980;SDS011;2507;50.392;7.482;2022-08-19T09:26:12;12.97;;;9.70;;
4980;SDS011;2507;50.392;7.482;2022-08-19T09:28:39;9.83;;;8.90;;
4980;SDS011;2507;50.392;7.482;2022-08-19T09:31:13;10.63;;;9.00;;
4980;SDS011;2507;50.392;7.482;2022-08-19T09:33:40;12.53;;;11.37;;
4980;SDS011;2507;50.392;7.482;2022-08-19T09:36:09;12.10;;;10.90;;
4980;SDS011;2507;50.392;7.482;2022-08-19T09:38:36;10.13;;;8.13;;
4980;SDS011;2507;50.392;7.482;2022-08-19T09:41:06;10.73;;;9.83;;
4980;SDS011;2507;50.392;7.482;2022-08-19T09:43:33;10.93;;;9.17;;
4980;SDS011;2507;50.392;7.482;2022-08-19T09:46:01;14.10;;;12.47;;
4980;SDS011;2507;50.392;7.482;2022-08-19T09:48:31;14.17;;;12.67;;
4980;SDS011;2507;50.392;7.482;2022-08-19T09:51:04;13.47;;;11.90;;
4980;SDS011;2507;50.392;7.482;2022-08-19T09:53:34;15.63;;;12.57;;
4980;SDS011;2507;50.392;7.482;2022-08-19T09:56:00;12.37;;;11.17;;
4980;SDS011;2507;50.392;7.482;2022-08-19T09:58:27;13.47;;;11.37;;
4980;SDS011;2507;50.392;7.482;2022-08-19T10:00:54;13.20;;;12.00;;
4980;SDS011;2507;50.392;7.482;2022-08-19T10:03:21;11.83;;;10.73;;
4980;SDS011;2507;50.392;7.482;2022-08-19T10:05:46;14.10;;;12.00;;
4980;SDS011;2507;50.392;7.482;2022-08-19T10:08:16;12.90;;;11.70;;
4980;SDS011;2507;50.392;7.482;2022-08-19T10:10:43;15.20;;;13.63;;
4980;SDS011;2507;50.392;7.482;2022-08-19T10:13:10;12.30;;;10.37;;
4980;SDS011;2507;50.392;7.482;2022-08-19T10:15:35;15.13;;;12.00;;
4980;SDS011;2507;50.392;7.482;2022-08-19T10:18:04;12.70;;;11.50;;
4980;SDS011;2507;50.392;7.482;2022-08-19T10:20:30;13.83;;;12.63;;
4980;SDS011;2507;50.392;7.482;2022-08-19T10:22:55;12.93;;;11.73;;
4980;SDS011;2507;50.392;7.482;2022-08-19T10:25:21;13.97;;;11.80;;
4980;SDS011;2507;50.392;7.482;2022-08-19T10:27:46;12.10;;;11.00;;
4980;SDS011;2507;50.392;7.482;2022-08-19T10:30:12;15.10;;;12.10;;
4980;SDS011;2507;50.392;7.482;2022-08-19T10:32:37;12.67;;;11.40;;
4980;SDS011;2507;50.392;7.482;2022-08-19T10:35:03;12.20;;;11.10;;
4980;SDS011;2507;50.392;7.482;2022-08-19T10:37:33;11.90;;;10.90;;
4980;SDS011;2507;50.392;7.482;2022-08-19T10:39:59;12.70;;;11.60;;
4980;SDS011;2507;50.392;7.482;2022-08-19T10:42:24;12.53;;;10.37;;
4980;SDS011;2507;50.392;7.482;2022-08-19T10:44:49;12.23;;;10.53;;
4980;SDS011;2507;50.392;7.482;2022-08-19T10:47:15;13.47;;;11.97;;
4980;SDS011;2507;50.392;7.482;2022-08-19T10:49:40;11.23;;;10.23;;
4980;SDS011;2507;50.392;7.482;2022-08-19T10:52:25;10.13;;;9.20;;
4980;SDS011;2507;50.392;7.482;2022-08-19T10:55:00;10.10;;;9.30;;
4980;SDS011;2507;50.392;7.482;2022-08-19T10:57:48;11.50;;;10.40;;
4980;SDS011;2507;50.392;7.482;2022-08-19T11:00:13;11.00;;;9.90;;
4980;SDS011;2507;50.392;7.482;2022-08-19T11:02:39;10.00;;;8.93;;
4980;SDS011;2507;50.392;7.482;2022-08-19T11:05:04;8.97;;;7.90;;
4980;SDS011;2507;50.392;7.482;2022-08-19T11:07:31;9.20;;;8.50;;
4980;SDS011;2507;50.392;7.482;2022-08-19T11:09:57;10.03;;;9.13;;
4980;SDS011;2507;50.392;7.482;2022-08-19T11:12:22;9.83;;;8.90;;
4980;SDS011;2507;50.392;7.482;2022-08-19T11:14:47;10.63;;;9.63;;
4980;SDS011;2507;50.392;7.482;2022-08-19T11:17:14;11.43;;;10.30;;
4980;SDS011;2507;50.392;7.482;2022-08-19T11:19:40;9.83;;;8.83;;
4980;SDS011;2507;50.392;7.482;2022-08-19T11:22:07;6.90;;;6.40;;
4980;SDS011;2507;50.392;7.482;2022-08-19T11:24:34;8.00;;;7.40;;
4980;SDS011;2507;50.392;7.482;2022-08-19T11:27:05;7.37;;;6.77;;
4980;SDS011;2507;50.392;7.482;2022-08-19T11:29:33;8.13;;;7.43;;
4980;SDS011;2507;50.392;7.482;2022-08-19T11:32:00;12.23;;;8.60;;
4980;SDS011;2507;50.392;7.482;2022-08-19T11:34:32;9.53;;;8.83;;
4980;SDS011;2507;50.392;7.482;2022-08-19T11:36:57;9.10;;;8.40;;
4980;SDS011;2507;50.392;7.482;2022-08-19T11:39:24;9.07;;;8.33;;
4980;SDS011;2507;50.392;7.482;2022-08-19T11:41:51;10.90;;;9.90;;
4980;SDS011;2507;50.392;7.482;2022-08-19T11:44:16;8.77;;;8.07;;
4980;SDS011;2507;50.392;7.482;2022-08-19T11:46:42;9.87;;;9.07;;
4980;SDS011;2507;50.392;7.482;2022-08-19T11:49:12;10.40;;;8.47;;
4980;SDS011;2507;50.392;7.482;2022-08-19T11:51:40;9.63;;;8.83;;
4980;SDS011;2507;50.392;7.482;2022-08-19T11:54:07;10.27;;;9.20;;
4980;SDS011;2507;50.392;7.482;2022-08-19T11:56:33;9.13;;;8.43;;
4980;SDS011;2507;50.392;7.482;2022-08-19T11:58:58;9.90;;;8.90;;
4980;SDS011;2507;50.392;7.482;2022-08-19T12:01:26;9.77;;;8.87;;
4980;SDS011;2507;50.392;7.482;2022-08-19T12:03:53;9.30;;;8.40;;
4980;SDS011;2507;50.392;7.482;2022-08-19T12:06:24;9.67;;;8.90;;
4980;SDS011;2507;50.392;7.482;2022-08-19T12:08:53;9.33;;;8.53;;
4980;SDS011;2507;50.392;7.482;2022-08-19T12:11:19;9.23;;;8.40;;
4980;SDS011;2507;50.392;7.482;2022-08-19T12:13:45;8.23;;;7.63;;
4980;SDS011;2507;50.392;7.482;2022-08-19T12:16:15;8.83;;;8.03;;
4980;SDS011;2507;50.392;7.482;2022-08-19T12:18:44;10.20;;;9.27;;
4980;SDS011;2507;50.392;7.482;2022-08-19T12:21:13;9.40;;;8.70;;
4980;SDS011;2507;50.392;7.482;2022-08-19T12:23:40;8.23;;;7.67;;
4980;SDS011;2507;50.392;7.482;2022-08-19T12:26:06;10.43;;;7.50;;
4980;SDS011;2507;50.392;7.482;2022-08-19T12:28:31;8.20;;;7.50;;
4980;SDS011;2507;50.392;7.482;2022-08-19T12:30:56;8.50;;;7.80;;
4980;SDS011;2507;50.392;7.482;2022-08-19T12:33:22;8.60;;;7.90;;
4980;SDS011;2507;50.392;7.482;2022-08-19T12:35:50;9.53;;;8.83;;
4980;SDS011;2507;50.392;7.482;2022-08-19T12:38:15;9.73;;;7.77;;
4980;SDS011;2507;50.392;7.482;2022-08-19T12:40:41;10.70;;;9.70;;
4980;SDS011;2507;50.392;7.482;2022-08-19T12:43:10;8.23;;;7.53;;
4980;SDS011;2507;50.392;7.482;2022-08-19T12:45:36;9.57;;;8.70;;
4980;SDS011;2507;50.392;7.482;2022-08-19T12:48:02;8.47;;;7.80;;
4980;SDS011;2507;50.392;7.482;2022-08-19T12:50:27;8.37;;;7.73;;
4980;SDS011;2507;50.392;7.482;2022-08-19T12:52:53;9.37;;;8.57;;
4980;SDS011;2507;50.392;7.482;2022-08-19T12:55:18;7.60;;;6.97;;
4980;SDS011;2507;50.392;7.482;2022-08-19T12:57:44;8.23;;;7.40;;
4980;SDS011;2507;50.392;7.482;2022-08-19T13:00:12;9.07;;;8.17;;
4980;SDS011;2507;50.392;7.482;2022-08-19T13:02:39;9.27;;;8.50;;
4980;SDS011;2507;50.392;7.482;2022-08-19T13:05:07;11.33;;;8.30;;
4980;SDS011;2507;50.392;7.482;2022-08-19T13:07:33;9.17;;;8.37;;
4980;SDS011;2507;50.392;7.482;2022-08-19T13:09:59;8.40;;;7.70;;
4980;SDS011;2507;50.392;7.482;2022-08-19T13:12:25;8.80;;;8.00;;
4980;SDS011;2507;50.392;7.482;2022-08-19T13:14:52;8.73;;;8.00;;
4980;SDS011;2507;50.392;7.482;2022-08-19T13:17:17;8.00;;;7.20;;
4980;SDS011;2507;50.392;7.482;2022-08-19T13:19:43;8.90;;;7.60;;
4980;SDS011;2507;50.392;7.482;2022-08-19T13:22:08;8.37;;;7.60;;
4980;SDS011;2507;50.392;7.482;2022-08-19T13:24:33;7.70;;;7.00;;
4980;SDS011;2507;50.392;7.482;2022-08-19T13:26:59;7.00;;;6.47;;
4980;SDS011;2507;50.392;7.482;2022-08-19T13:29:25;8.03;;;7.33;;
4980;SDS011;2507;50.392;7.482;2022-08-19T13:32:09;7.37;;;6.83;;
4980;SDS011;2507;50.392;7.482;2022-08-19T13:34:53;7.90;;;7.10;;
4980;SDS011;2507;50.392;7.482;2022-08-19T13:37:18;8.20;;;7.50;;
4980;SDS011;2507;50.392;7.482;2022-08-19T13:40:04;7.97;;;7.37;;
4980;SDS011;2507;50.392;7.482;2022-08-19T13:42:30;7.37;;;6.83;;
4980;SDS011;2507;50.392;7.482;2022-08-19T13:44:56;7.37;;;6.77;;
4980;SDS011;2507;50.392;7.482;2022-08-19T13:47:21;6.90;;;6.20;;
4980;SDS011;2507;50.392;7.482;2022-08-19T13:49:46;8.13;;;7.43;;
4980;SDS011;2507;50.392;7.482;2022-08-19T13:52:12;9.40;;;8.07;;
4980;SDS011;2507;50.392;7.482;2022-08-19T13:54:38;7.60;;;7.07;;
4980;SDS011;2507;50.392;7.482;2022-08-19T13:57:03;8.23;;;7.57;;
4980;SDS011;2507;50.392;7.482;2022-08-19T13:59:28;9.40;;;8.80;;
4980;SDS011;2507;50.392;7.482;2022-08-19T14:01:57;10.20;;;9.20;;
4980;SDS011;2507;50.392;7.482;2022-08-19T14:04:23;8.60;;;8.00;;
4980;SDS011;2507;50.392;7.482;2022-08-19T14:06:49;10.20;;;8.47;;
4980;SDS011;2507;50.392;7.482;2022-08-19T14:09:15;8.90;;;8.10;;
4980;SDS011;2507;50.392;7.482;2022-08-19T14:11:40;8.83;;;8.03;;
4980;SDS011;2507;50.392;7.482;2022-08-19T14:14:05;9.20;;;8.30;;
4980;SDS011;2507;50.392;7.482;2022-08-19T14:16:31;9.27;;;8.37;;
4980;SDS011;2507;50.392;7.482;2022-08-19T14:18:56;9.70;;;8.80;;
4980;SDS011;2507;50.392;7.482;2022-08-19T14:21:22;9.33;;;8.53;;
4980;SDS011;2507;50.392;7.482;2022-08-19T14:23:49;8.87;;;8.27;;
4980;SDS011;2507;50.392;7.482;2022-08-19T14:26:15;8.87;;;8.27;;
4980;SDS011;2507;50.392;7.482;2022-08-19T14:28:42;9.53;;;8.73;;
4980;SDS011;2507;50.392;7.482;2022-08-19T14:31:09;10.23;;;9.00;;
4980;SDS011;2507;50.392;7.482;2022-08-19T14:33:36;10.40;;;9.20;;
4980;SDS011;2507;50.392;7.482;2022-08-19T14:36:01;10.07;;;9.17;;
4980;SDS011;2507;50.392;7.482;2022-08-19T14:38:27;10.10;;;9.30;;
4980;SDS011;2507;50.392;7.482;2022-08-19T14:41:05;14.20;;;9.27;;
4980;SDS011;2507;50.392;7.482;2022-08-19T14:43:42;11.87;;;10.37;;
4980;SDS011;2507;50.392;7.482;2022-08-19T14:46:11;11.33;;;10.33;;
4980;SDS011;2507;50.392;7.482;2022-08-19T14:48:38;11.90;;;10.90;;
4980;SDS011;2507;50.392;7.482;2022-08-19T14:51:04;12.67;;;11.40;;
4980;SDS011;2507;50.392;7.482;2022-08-19T14:53:30;11.33;;;10.23;;
4980;SDS011;2507;50.392;7.482;2022-08-19T14:55:58;14.43;;;10.40;;
4980;SDS011;2507;50.392;7.482;2022-08-19T14:58:24;11.37;;;10.37;;
4980;SDS011;2507;50.392;7.482;2022-08-19T15:00:49;12.63;;;11.40;;
4980;SDS011;2507;50.392;7.482;2022-08-19T15:03:14;13.27;;;11.90;;
4980;SDS011;2507;50.392;7.482;2022-08-19T15:05:40;13.30;;;11.30;;